sensor_id;sensor_type;location;lat;lon;timestamp;pressure;altitude;pressure_sealevel;temperature;humidity
77749;BME280;66938;52.084;5.228;2023-04-24T00:00:09;99971.0;;;10.18;82.07
77749;BME280;66938;52.084;5.228;2023-04-24T00:01:45;99973.0;;;10.23;81.84
77749;BME280;66938;52.084;5.228;2023-04-24T00:03:22;99975.0;;;10.18;82.23
77749;BME280;66938;52.084;5.228;2023-04-24T00:06:36;99980.0;;;10.19;82.19
77749;BME280;66938;52.084;5.228;2023-04-24T00:08:12;99984.0;;;10.14;82.8
77749;BME280;66938;52.084;5.228;2023-04-24T00:09:48;99985.0;;;10.25;82.58
77749;BME280;66938;52.084;5.228;2023-04-24T00:13:02;99983.0;;;10.23;82.4
77749;BME280;66938;52.084;5.228;2023-04-24T00:14:38;99989.0;;;10.21;82.8
77749;BME280;66938;52.084;5.228;2023-04-24T00:16:15;99989.0;;;10.24;82.78
77749;BME280;66938;52.084;5.228;2023-04-24T00:17:51;99983.0;;;10.25;82.96
77749;BME280;66938;52.084;5.228;2023-04-24T00:21:04;99989.0;;;10.18;83.21
77749;BME280;66938;52.084;5.228;2023-04-24T00:22:41;99988.0;;;10.26;82.93
77749;BME280;66938;52.084;5.228;2023-04-24T00:24:17;99991.0;;;10.28;82.57
77749;BME280;66938;52.084;5.228;2023-04-24T00:27:31;99992.0;;;10.29;82.53
77749;BME280;66938;52.084;5.228;2023-04-24T00:29:08;99998.0;;;10.4;82.39
77749;BME280;66938;52.084;5.228;2023-04-24T00:30:45;99994.0;;;10.33;82.61
77749;BME280;66938;52.084;5.228;2023-04-24T00:33:57;99997.0;;;10.32;82.5
77749;BME280;66938;52.084;5.228;2023-04-24T00:35:34;100002.0;;;10.29;82.41
77749;BME280;66938;52.084;5.228;2023-04-24T00:37:10;99996.0;;;10.32;82.28
77749;BME280;66938;52.084;5.228;2023-04-24T00:38:47;100001.0;;;10.23;82.61
77749;BME280;66938;52.084;5.228;2023-04-24T00:41:59;99995.0;;;10.26;82.54
77749;BME280;66938;52.084;5.228;2023-04-24T00:43:36;100000.0;;;10.28;82.55
77749;BME280;66938;52.084;5.228;2023-04-24T00:45:12;100000.0;;;10.22;82.93
77749;BME280;66938;52.084;5.228;2023-04-24T00:48:27;100001.0;;;10.34;82.58
77749;BME280;66938;52.084;5.228;2023-04-24T00:50:05;100000.0;;;10.43;82.22
77749;BME280;66938;52.084;5.228;2023-04-24T00:51:43;100008.0;;;10.3;82.63
77749;BME280;66938;52.084;5.228;2023-04-24T00:54:56;100005.0;;;10.24;82.47
77749;BME280;66938;52.084;5.228;2023-04-24T00:56:33;100006.0;;;10.34;82.55
77749;BME280;66938;52.084;5.228;2023-04-24T00:58:10;100011.0;;;10.33;82.72
77749;BME280;66938;52.084;5.228;2023-04-24T00:59:47;100008.0;;;10.27;82.6
77749;BME280;66938;52.084;5.228;2023-04-24T01:03:01;100009.0;;;10.21;83.06
77749;BME280;66938;52.084;5.228;2023-04-24T01:04:41;100007.0;;;10.25;83.02
77749;BME280;66938;52.084;5.228;2023-04-24T01:06:18;100007.0;;;10.25;83.06
77749;BME280;66938;52.084;5.228;2023-04-24T01:09:34;100012.0;;;10.27;83.12
77749;BME280;66938;52.084;5.228;2023-04-24T01:11:11;100011.0;;;10.34;82.86
77749;BME280;66938;52.084;5.228;2023-04-24T01:12:47;100013.0;;;10.35;82.93
77749;BME280;66938;52.084;5.228;2023-04-24T01:14:24;100015.0;;;10.39;82.67
77749;BME280;66938;52.084;5.228;2023-04-24T01:17:39;100014.0;;;10.38;82.82
77749;BME280;66938;52.084;5.228;2023-04-24T01:19:16;100014.0;;;10.31;82.94
77749;BME280;66938;52.084;5.228;2023-04-24T01:20:58;100016.0;;;10.35;82.93
77749;BME280;66938;52.084;5.228;2023-04-24T01:22:40;100017.0;;;10.38;82.84
77749;BME280;66938;52.084;5.228;2023-04-24T01:25:54;100017.0;;;10.51;82.74
77749;BME280;66938;52.084;5.228;2023-04-24T01:27:31;100019.0;;;10.49;82.74
77749;BME280;66938;52.084;5.228;2023-04-24T01:29:08;100020.0;;;10.35;83.23
77749;BME280;66938;52.084;5.228;2023-04-24T01:32:23;100021.0;;;10.38;83.16
77749;BME280;66938;52.084;5.228;2023-04-24T01:34:00;100019.0;;;10.33;83.51
77749;BME280;66938;52.084;5.228;2023-04-24T01:35:37;100024.0;;;10.36;83.45
77749;BME280;66938;52.084;5.228;2023-04-24T01:38:50;100024.0;;;10.46;83.18
77749;BME280;66938;52.084;5.228;2023-04-24T01:40:27;100023.0;;;10.42;83.16
77749;BME280;66938;52.084;5.228;2023-04-24T01:42:05;100024.0;;;10.44;83.21
77749;BME280;66938;52.084;5.228;2023-04-24T01:43:42;100024.0;;;10.43;83.1
77749;BME280;66938;52.084;5.228;2023-04-24T01:46:55;100023.0;;;10.44;82.98
77749;BME280;66938;52.084;5.228;2023-04-24T01:48:33;100021.0;;;10.49;82.51
77749;BME280;66938;52.084;5.228;2023-04-24T01:50:10;100024.0;;;10.52;82.47
77749;BME280;66938;52.084;5.228;2023-04-24T01:53:24;100023.0;;;10.51;82.19
77749;BME280;66938;52.084;5.228;2023-04-24T01:55:02;100023.0;;;10.51;82.14
77749;BME280;66938;52.084;5.228;2023-04-24T01:56:41;100026.0;;;10.44;82.37
77749;BME280;66938;52.084;5.228;2023-04-24T01:58:19;100022.0;;;10.36;82.5
77749;BME280;66938;52.084;5.228;2023-04-24T02:01:34;100028.0;;;10.47;82.31
77749;BME280;66938;52.084;5.228;2023-04-24T02:03:11;100027.0;;;10.51;82.3
77749;BME280;66938;52.084;5.228;2023-04-24T02:04:48;100023.0;;;10.44;82.26
77749;BME280;66938;52.084;5.228;2023-04-24T02:08:00;100024.0;;;10.49;82.17
77749;BME280;66938;52.084;5.228;2023-04-24T02:09:37;100028.0;;;10.41;82.41
77749;BME280;66938;52.084;5.228;2023-04-24T02:11:13;100028.0;;;10.38;82.51
77749;BME280;66938;52.084;5.228;2023-04-24T02:14:26;100026.0;;;10.42;82.23
77749;BME280;66938;52.084;5.228;2023-04-24T02:16:03;100026.0;;;10.44;82.35
77749;BME280;66938;52.084;5.228;2023-04-24T02:17:39;100024.0;;;10.48;82.14
77749;BME280;66938;52.084;5.228;2023-04-24T02:19:16;100028.0;;;10.53;81.94
77749;BME280;66938;52.084;5.228;2023-04-24T02:22:29;100020.0;;;10.5;82.08
77749;BME280;66938;52.084;5.228;2023-04-24T02:24:06;100030.0;;;10.51;81.96
77749;BME280;66938;52.084;5.228;2023-04-24T02:25:42;100031.0;;;10.53;82.04
77749;BME280;66938;52.084;5.228;2023-04-24T02:28:56;100033.0;;;10.57;81.87
77749;BME280;66938;52.084;5.228;2023-04-24T02:30:32;100027.0;;;10.53;81.94
77749;BME280;66938;52.084;5.228;2023-04-24T02:32:09;100028.0;;;10.53;81.91
77749;BME280;66938;52.084;5.228;2023-04-24T02:33:45;100022.0;;;10.55;81.8
77749;BME280;66938;52.084;5.228;2023-04-24T02:36:59;100030.0;;;10.44;82.07
77749;BME280;66938;52.084;5.228;2023-04-24T02:38:36;100023.0;;;10.53;81.89
77749;BME280;66938;52.084;5.228;2023-04-24T02:40:12;100021.0;;;10.51;82.03
77749;BME280;66938;52.084;5.228;2023-04-24T02:43:25;100019.0;;;10.59;81.53
77749;BME280;66938;52.084;5.228;2023-04-24T02:45:03;100019.0;;;10.53;81.53
77749;BME280;66938;52.084;5.228;2023-04-24T02:46:39;100025.0;;;10.51;81.75
77749;BME280;66938;52.084;5.228;2023-04-24T02:49:53;100021.0;;;10.57;81.66
77749;BME280;66938;52.084;5.228;2023-04-24T02:51:29;100026.0;;;10.59;81.61
77749;BME280;66938;52.084;5.228;2023-04-24T02:53:06;100024.0;;;10.55;81.66
77749;BME280;66938;52.084;5.228;2023-04-24T02:54:43;100026.0;;;10.48;82.15
77749;BME280;66938;52.084;5.228;2023-04-24T02:57:56;100028.0;;;10.56;81.89
77749;BME280;66938;52.084;5.228;2023-04-24T02:59:33;100016.0;;;10.57;81.83
77749;BME280;66938;52.084;5.228;2023-04-24T03:01:09;100018.0;;;10.55;81.84
77749;BME280;66938;52.084;5.228;2023-04-24T03:04:23;100021.0;;;10.54;81.86
77749;BME280;66938;52.084;5.228;2023-04-24T03:05:59;100020.0;;;10.48;82.23
77749;BME280;66938;52.084;5.228;2023-04-24T03:07:35;100020.0;;;10.51;82.32
77749;BME280;66938;52.084;5.228;2023-04-24T03:10:50;100022.0;;;10.56;81.93
77749;BME280;66938;52.084;5.228;2023-04-24T03:12:26;100024.0;;;10.51;82.04
77749;BME280;66938;52.084;5.228;2023-04-24T03:14:03;100017.0;;;10.49;82.06
77749;BME280;66938;52.084;5.228;2023-04-24T03:15:40;100014.0;;;10.52;82.23
77749;BME280;66938;52.084;5.228;2023-04-24T03:18:54;100014.0;;;10.61;81.89
77749;BME280;66938;52.084;5.228;2023-04-24T03:20:30;100018.0;;;10.52;81.84
77749;BME280;66938;52.084;5.228;2023-04-24T03:22:08;100018.0;;;10.53;82.06
77749;BME280;66938;52.084;5.228;2023-04-24T03:25:21;100020.0;;;10.55;81.91
77749;BME280;66938;52.084;5.228;2023-04-24T03:26:58;100013.0;;;10.61;81.81
77749;BME280;66938;52.084;5.228;2023-04-24T03:28:35;100019.0;;;10.5;82.31
77749;BME280;66938;52.084;5.228;2023-04-24T03:31:49;100018.0;;;10.54;82.06
77749;BME280;66938;52.084;5.228;2023-04-24T03:33:26;100016.0;;;10.5;81.91
77749;BME280;66938;52.084;5.228;2023-04-24T03:35:03;100015.0;;;10.54;81.8
77749;BME280;66938;52.084;5.228;2023-04-24T03:36:40;100021.0;;;10.48;81.58
77749;BME280;66938;52.084;5.228;2023-04-24T03:39:52;100011.0;;;10.46;81.92
77749;BME280;66938;52.084;5.228;2023-04-24T03:41:29;100018.0;;;10.51;81.88
77749;BME280;66938;52.084;5.228;2023-04-24T03:43:05;100016.0;;;10.5;81.64
77749;BME280;66938;52.084;5.228;2023-04-24T03:46:18;100014.0;;;10.5;81.52
77749;BME280;66938;52.084;5.228;2023-04-24T03:47:56;100011.0;;;10.42;81.47
77749;BME280;66938;52.084;5.228;2023-04-24T03:49:33;100010.0;;;10.44;81.05
77749;BME280;66938;52.084;5.228;2023-04-24T03:52:46;100012.0;;;10.4;81.08
77749;BME280;66938;52.084;5.228;2023-04-24T03:54:23;100013.0;;;10.43;80.87
77749;BME280;66938;52.084;5.228;2023-04-24T03:55:59;100016.0;;;10.33;81.08
77749;BME280;66938;52.084;5.228;2023-04-24T03:57:36;100018.0;;;10.45;81.05
77749;BME280;66938;52.084;5.228;2023-04-24T04:00:49;100022.0;;;10.39;81.45
77749;BME280;66938;52.084;5.228;2023-04-24T04:02:26;100021.0;;;10.39;81.69
77749;BME280;66938;52.084;5.228;2023-04-24T04:04:02;100019.0;;;10.41;81.52
77749;BME280;66938;52.084;5.228;2023-04-24T04:07:15;100021.0;;;10.28;81.72
77749;BME280;66938;52.084;5.228;2023-04-24T04:08:52;100022.0;;;10.28;81.75
77749;BME280;66938;52.084;5.228;2023-04-24T04:10:29;100025.0;;;10.27;82.07
77749;BME280;66938;52.084;5.228;2023-04-24T04:12:07;100030.0;;;10.38;81.63
77749;BME280;66938;52.084;5.228;2023-04-24T04:15:21;100030.0;;;10.29;82.03
77749;BME280;66938;52.084;5.228;2023-04-24T04:16:58;100035.0;;;10.28;82.39
77749;BME280;66938;52.084;5.228;2023-04-24T04:18:34;100034.0;;;10.3;82.27
77749;BME280;66938;52.084;5.228;2023-04-24T04:21:47;100031.0;;;10.25;82.54
77749;BME280;66938;52.084;5.228;2023-04-24T04:23:23;100033.0;;;10.21;82.96
77749;BME280;66938;52.084;5.228;2023-04-24T04:25:00;100039.0;;;10.26;83.04
77749;BME280;66938;52.084;5.228;2023-04-24T04:28:14;100039.0;;;10.24;82.99
77749;BME280;66938;52.084;5.228;2023-04-24T04:29:51;100041.0;;;10.28;82.82
77749;BME280;66938;52.084;5.228;2023-04-24T04:31:27;100042.0;;;10.23;82.95
77749;BME280;66938;52.084;5.228;2023-04-24T04:33:03;100043.0;;;10.24;82.85
77749;BME280;66938;52.084;5.228;2023-04-24T04:36:15;100042.0;;;10.31;82.73
77749;BME280;66938;52.084;5.228;2023-04-24T04:37:51;100046.0;;;10.46;82.0
77749;BME280;66938;52.084;5.228;2023-04-24T04:39:28;100048.0;;;10.33;82.26
77749;BME280;66938;52.084;5.228;2023-04-24T04:42:40;100058.0;;;10.23;82.79
77749;BME280;66938;52.084;5.228;2023-04-24T04:44:16;100058.0;;;10.32;82.5
77749;BME280;66938;52.084;5.228;2023-04-24T04:45:52;100061.0;;;10.29;82.66
77749;BME280;66938;52.084;5.228;2023-04-24T04:49:04;100069.0;;;10.23;83.04
77749;BME280;66938;52.084;5.228;2023-04-24T04:50:40;100071.0;;;10.18;83.21
77749;BME280;66938;52.084;5.228;2023-04-24T04:52:17;100071.0;;;10.15;83.41
77749;BME280;66938;52.084;5.228;2023-04-24T04:55:30;100080.0;;;10.17;83.38
77749;BME280;66938;52.084;5.228;2023-04-24T04:57:06;100077.0;;;10.14;83.42
77749;BME280;66938;52.084;5.228;2023-04-24T04:58:42;100080.0;;;10.16;83.3
77749;BME280;66938;52.084;5.228;2023-04-24T05:00:19;100081.0;;;10.14;83.47
77749;BME280;66938;52.084;5.228;2023-04-24T05:03:31;100086.0;;;10.26;83.15
77749;BME280;66938;52.084;5.228;2023-04-24T05:05:08;100089.0;;;10.3;82.93
77749;BME280;66938;52.084;5.228;2023-04-24T05:09:57;100095.0;;;10.34;82.91
77749;BME280;66938;52.084;5.228;2023-04-24T05:11:33;100098.0;;;10.41;82.78
77749;BME280;66938;52.084;5.228;2023-04-24T05:13:09;100100.0;;;10.46;82.58
77749;BME280;66938;52.084;5.228;2023-04-24T05:16:21;100107.0;;;10.41;82.66
77749;BME280;66938;52.084;5.228;2023-04-24T05:17:57;100107.0;;;10.49;82.4
77749;BME280;66938;52.084;5.228;2023-04-24T05:19:34;100119.0;;;10.49;82.32
77749;BME280;66938;52.084;5.228;2023-04-24T05:21:11;100119.0;;;10.52;82.08
77749;BME280;66938;52.084;5.228;2023-04-24T05:24:23;100127.0;;;10.53;82.06
77749;BME280;66938;52.084;5.228;2023-04-24T05:25:59;100135.0;;;10.56;81.96
77749;BME280;66938;52.084;5.228;2023-04-24T05:27:36;100135.0;;;10.58;81.74
77749;BME280;66938;52.084;5.228;2023-04-24T05:30:48;100139.0;;;10.61;81.66
77749;BME280;66938;52.084;5.228;2023-04-24T05:32:24;100145.0;;;10.56;81.52
77749;BME280;66938;52.084;5.228;2023-04-24T05:34:01;100151.0;;;10.51;81.41
77749;BME280;66938;52.084;5.228;2023-04-24T05:37:13;100156.0;;;10.53;80.75
77749;BME280;66938;52.084;5.228;2023-04-24T05:38:49;100160.0;;;10.43;80.78
77749;BME280;66938;52.084;5.228;2023-04-24T05:40:25;100167.0;;;10.42;80.22
77749;BME280;66938;52.084;5.228;2023-04-24T05:43:38;100176.0;;;10.38;80.45
77749;BME280;66938;52.084;5.228;2023-04-24T05:45:15;100180.0;;;10.34;80.33
77749;BME280;66938;52.084;5.228;2023-04-24T05:46:51;100182.0;;;10.28;80.2
77749;BME280;66938;52.084;5.228;2023-04-24T05:48:27;100184.0;;;10.22;80.5
77749;BME280;66938;52.084;5.228;2023-04-24T05:51:41;100191.0;;;10.18;80.44
77749;BME280;66938;52.084;5.228;2023-04-24T05:53:17;100200.0;;;10.13;80.59
77749;BME280;66938;52.084;5.228;2023-04-24T05:54:53;100200.0;;;10.03;81.36
77749;BME280;66938;52.084;5.228;2023-04-24T05:58:06;100205.0;;;10.06;80.91
77749;BME280;66938;52.084;5.228;2023-04-24T05:59:43;100208.0;;;9.98;81.02
77749;BME280;66938;52.084;5.228;2023-04-24T06:01:19;100209.0;;;10.0;81.02
77749;BME280;66938;52.084;5.228;2023-04-24T06:04:31;100217.0;;;10.09;80.94
77749;BME280;66938;52.084;5.228;2023-04-24T06:06:08;100217.0;;;10.11;80.86
77749;BME280;66938;52.084;5.228;2023-04-24T06:07:44;100218.0;;;10.1;80.92
77749;BME280;66938;52.084;5.228;2023-04-24T06:09:20;100219.0;;;9.99;81.61
77749;BME280;66938;52.084;5.228;2023-04-24T06:12:33;100225.0;;;9.98;81.66
77749;BME280;66938;52.084;5.228;2023-04-24T06:14:09;100236.0;;;10.09;81.41
77749;BME280;66938;52.084;5.228;2023-04-24T06:15:45;100238.0;;;10.06;81.69
77749;BME280;66938;52.084;5.228;2023-04-24T06:18:57;100242.0;;;10.03;81.95
77749;BME280;66938;52.084;5.228;2023-04-24T06:20:33;100249.0;;;9.99;82.13
77749;BME280;66938;52.084;5.228;2023-04-24T06:22:10;100249.0;;;10.01;82.03
77749;BME280;66938;52.084;5.228;2023-04-24T06:25:24;100253.0;;;10.0;82.07
77749;BME280;66938;52.084;5.228;2023-04-24T06:27:01;100259.0;;;10.05;81.8
77749;BME280;66938;52.084;5.228;2023-04-24T06:28:37;100264.0;;;9.99;82.1
77749;BME280;66938;52.084;5.228;2023-04-24T06:30:13;100266.0;;;10.02;82.21
77749;BME280;66938;52.084;5.228;2023-04-24T06:33:26;100278.0;;;9.86;82.61
77749;BME280;66938;52.084;5.228;2023-04-24T06:35:03;100286.0;;;9.8;82.7
77749;BME280;66938;52.084;5.228;2023-04-24T06:36:40;100294.0;;;9.8;82.67
77749;BME280;66938;52.084;5.228;2023-04-24T06:39:52;100297.0;;;9.77;82.4
77749;BME280;66938;52.084;5.228;2023-04-24T06:41:28;100303.0;;;9.73;82.27
77749;BME280;66938;52.084;5.228;2023-04-24T06:43:04;100310.0;;;9.76;82.27
77749;BME280;66938;52.084;5.228;2023-04-24T06:46:16;100313.0;;;9.77;82.14
77749;BME280;66938;52.084;5.228;2023-04-24T06:47:52;100319.0;;;9.72;82.31
77749;BME280;66938;52.084;5.228;2023-04-24T06:49:29;100324.0;;;9.63;82.54
77749;BME280;66938;52.084;5.228;2023-04-24T06:51:05;100327.0;;;9.71;82.54
77749;BME280;66938;52.084;5.228;2023-04-24T06:54:17;100340.0;;;9.67;82.35
77749;BME280;66938;52.084;5.228;2023-04-24T06:55:53;100349.0;;;9.71;82.18
77749;BME280;66938;52.084;5.228;2023-04-24T06:57:30;100346.0;;;9.67;82.05
77749;BME280;66938;52.084;5.228;2023-04-24T07:00:42;100359.0;;;9.61;81.44
77749;BME280;66938;52.084;5.228;2023-04-24T07:02:19;100367.0;;;9.58;81.66
77749;BME280;66938;52.084;5.228;2023-04-24T07:03:55;100364.0;;;9.58;81.34
77749;BME280;66938;52.084;5.228;2023-04-24T07:07:07;100374.0;;;9.59;81.58
77749;BME280;66938;52.084;5.228;2023-04-24T07:08:43;100371.0;;;9.55;81.55
77749;BME280;66938;52.084;5.228;2023-04-24T07:10:19;100380.0;;;9.56;81.63
77749;BME280;66938;52.084;5.228;2023-04-24T07:13:31;100385.0;;;9.61;81.72
77749;BME280;66938;52.084;5.228;2023-04-24T07:15:09;100387.0;;;9.64;81.89
77749;BME280;66938;52.084;5.228;2023-04-24T07:16:45;100394.0;;;9.65;81.61
77749;BME280;66938;52.084;5.228;2023-04-24T07:18:22;100401.0;;;9.66;81.41
77749;BME280;66938;52.084;5.228;2023-04-24T07:21:34;100408.0;;;9.73;81.69
77749;BME280;66938;52.084;5.228;2023-04-24T07:23:10;100413.0;;;9.69;81.87
77749;BME280;66938;52.084;5.228;2023-04-24T07:24:46;100413.0;;;9.61;81.42
77749;BME280;66938;52.084;5.228;2023-04-24T07:28:00;100417.0;;;9.63;81.74
77749;BME280;66938;52.084;5.228;2023-04-24T07:29:36;100420.0;;;9.59;81.5
77749;BME280;66938;52.084;5.228;2023-04-24T07:31:12;100425.0;;;9.6;81.87
77749;BME280;66938;52.084;5.228;2023-04-24T07:34:25;100424.0;;;9.71;81.77
77749;BME280;66938;52.084;5.228;2023-04-24T07:36:01;100430.0;;;9.68;82.01
77749;BME280;66938;52.084;5.228;2023-04-24T07:37:37;100434.0;;;9.73;81.87
77749;BME280;66938;52.084;5.228;2023-04-24T07:39:15;100437.0;;;9.76;81.7
77749;BME280;66938;52.084;5.228;2023-04-24T07:42:28;100438.0;;;9.74;81.62
77749;BME280;66938;52.084;5.228;2023-04-24T07:44:04;100453.0;;;9.73;81.62
77749;BME280;66938;52.084;5.228;2023-04-24T07:45:40;100456.0;;;9.74;81.69
77749;BME280;66938;52.084;5.228;2023-04-24T07:48:52;100463.0;;;9.72;81.72
77749;BME280;66938;52.084;5.228;2023-04-24T07:50:29;100473.0;;;9.74;81.56
77749;BME280;66938;52.084;5.228;2023-04-24T07:52:06;100471.0;;;9.72;81.74
77749;BME280;66938;52.084;5.228;2023-04-24T07:55:19;100469.0;;;9.73;81.8
77749;BME280;66938;52.084;5.228;2023-04-24T07:56:56;100473.0;;;9.64;81.25
77749;BME280;66938;52.084;5.228;2023-04-24T07:58:32;100477.0;;;9.67;81.33
77749;BME280;66938;52.084;5.228;2023-04-24T08:00:09;100486.0;;;9.73;81.41
77749;BME280;66938;52.084;5.228;2023-04-24T08:03:21;100488.0;;;9.76;81.23
77749;BME280;66938;52.084;5.228;2023-04-24T08:04:58;100493.0;;;9.73;81.38
77749;BME280;66938;52.084;5.228;2023-04-24T08:06:34;100500.0;;;9.64;81.59
77749;BME280;66938;52.084;5.228;2023-04-24T08:09:46;100500.0;;;9.49;80.98
77749;BME280;66938;52.084;5.228;2023-04-24T08:11:22;100507.0;;;9.48;80.8
77749;BME280;66938;52.084;5.228;2023-04-24T08:12:59;100515.0;;;9.5;80.59
77749;BME280;66938;52.084;5.228;2023-04-24T08:16:12;100531.0;;;9.51;80.66
77749;BME280;66938;52.084;5.228;2023-04-24T08:17:48;100526.0;;;9.47;80.83
77749;BME280;66938;52.084;5.228;2023-04-24T08:19:24;100531.0;;;9.55;80.77
77749;BME280;66938;52.084;5.228;2023-04-24T08:21:00;100538.0;;;9.63;80.78
77749;BME280;66938;52.084;5.228;2023-04-24T08:24:12;100545.0;;;9.53;80.58
77749;BME280;66938;52.084;5.228;2023-04-24T08:25:48;100555.0;;;9.56;79.86
77749;BME280;66938;52.084;5.228;2023-04-24T08:27:25;100555.0;;;9.52;79.56
77749;BME280;66938;52.084;5.228;2023-04-24T08:30:38;100561.0;;;9.44;79.83
77749;BME280;66938;52.084;5.228;2023-04-24T08:32:15;100564.0;;;9.44;78.8
77749;BME280;66938;52.084;5.228;2023-04-24T08:33:51;100567.0;;;9.39;79.37
77749;BME280;66938;52.084;5.228;2023-04-24T08:37:03;100576.0;;;9.41;78.09
77749;BME280;66938;52.084;5.228;2023-04-24T08:38:39;100585.0;;;9.51;78.77
77749;BME280;66938;52.084;5.228;2023-04-24T08:40:16;100584.0;;;9.59;78.44
77749;BME280;66938;52.084;5.228;2023-04-24T08:43:33;100586.0;;;9.65;78.64
77749;BME280;66938;52.084;5.228;2023-04-24T08:45:10;100594.0;;;9.61;77.69
77749;BME280;66938;52.084;5.228;2023-04-24T08:46:48;100594.0;;;9.65;76.91
77749;BME280;66938;52.084;5.228;2023-04-24T08:48:24;100596.0;;;9.71;75.74
77749;BME280;66938;52.084;5.228;2023-04-24T08:51:39;100602.0;;;9.72;76.27
77749;BME280;66938;52.084;5.228;2023-04-24T08:53:16;100610.0;;;9.61;75.55
77749;BME280;66938;52.084;5.228;2023-04-24T08:54:54;100611.0;;;9.67;75.89
77749;BME280;66938;52.084;5.228;2023-04-24T08:58:10;100606.0;;;9.72;75.5
77749;BME280;66938;52.084;5.228;2023-04-24T08:59:46;100616.0;;;9.75;75.73
77749;BME280;66938;52.084;5.228;2023-04-24T09:01:23;100619.0;;;9.81;77.22
77749;BME280;66938;52.084;5.228;2023-04-24T09:03:01;100622.0;;;9.83;75.61
77749;BME280;66938;52.084;5.228;2023-04-24T09:06:19;100624.0;;;9.96;75.41
77749;BME280;66938;52.084;5.228;2023-04-24T09:07:59;100624.0;;;9.91;75.36
77749;BME280;66938;52.084;5.228;2023-04-24T09:09:38;100630.0;;;9.91;76.02
77749;BME280;66938;52.084;5.228;2023-04-24T09:11:15;100635.0;;;9.93;75.33
77749;BME280;66938;52.084;5.228;2023-04-24T09:14:30;100637.0;;;9.96;74.97
77749;BME280;66938;52.084;5.228;2023-04-24T09:16:06;100637.0;;;9.96;75.44
77749;BME280;66938;52.084;5.228;2023-04-24T09:17:43;100640.0;;;9.98;74.52
77749;BME280;66938;52.084;5.228;2023-04-24T09:20:57;100647.0;;;10.03;75.3
77749;BME280;66938;52.084;5.228;2023-04-24T09:22:34;100649.0;;;10.03;74.33
77749;BME280;66938;52.084;5.228;2023-04-24T09:24:15;100651.0;;;10.11;75.47
77749;BME280;66938;52.084;5.228;2023-04-24T09:25:54;100651.0;;;10.08;73.34
77749;BME280;66938;52.084;5.228;2023-04-24T09:29:14;100651.0;;;10.18;74.55
77749;BME280;66938;52.084;5.228;2023-04-24T09:31:02;100652.0;;;10.24;72.59
77749;BME280;66938;52.084;5.228;2023-04-24T09:32:39;100665.0;;;10.21;71.63
77749;BME280;66938;52.084;5.228;2023-04-24T09:34:21;100655.0;;;10.07;70.81
77749;BME280;66938;52.084;5.228;2023-04-24T09:37:36;100665.0;;;10.21;73.34
77749;BME280;66938;52.084;5.228;2023-04-24T09:40:51;100673.0;;;10.19;71.27
77749;BME280;66938;52.084;5.228;2023-04-24T09:44:12;100683.0;;;10.27;70.87
77749;BME280;66938;52.084;5.228;2023-04-24T09:45:48;100682.0;;;10.26;70.78
77749;BME280;66938;52.084;5.228;2023-04-24T09:47:25;100680.0;;;10.21;68.16
77749;BME280;66938;52.084;5.228;2023-04-24T09:49:08;100685.0;;;10.34;70.33
77749;BME280;66938;52.084;5.228;2023-04-24T09:52:22;100694.0;;;10.48;69.53
77749;BME280;66938;52.084;5.228;2023-04-24T09:53:58;100685.0;;;10.53;68.97
77749;BME280;66938;52.084;5.228;2023-04-24T09:55:39;100688.0;;;10.54;66.8
77749;BME280;66938;52.084;5.228;2023-04-24T09:57:15;100696.0;;;10.66;67.24
77749;BME280;66938;52.084;5.228;2023-04-24T10:00:29;100697.0;;;10.61;67.08
77749;BME280;66938;52.084;5.228;2023-04-24T10:02:17;100696.0;;;10.68;66.63
77749;BME280;66938;52.084;5.228;2023-04-24T10:03:53;100699.0;;;10.6;66.59
77749;BME280;66938;52.084;5.228;2023-04-24T10:07:08;100698.0;;;10.58;66.94
77749;BME280;66938;52.084;5.228;2023-04-24T10:08:44;100711.0;;;10.64;68.22
77749;BME280;66938;52.084;5.228;2023-04-24T10:10:21;100722.0;;;10.65;67.45
77749;BME280;66938;52.084;5.228;2023-04-24T10:11:58;100725.0;;;10.55;67.1
77749;BME280;66938;52.084;5.228;2023-04-24T10:15:11;100726.0;;;10.5;67.72
77749;BME280;66938;52.084;5.228;2023-04-24T10:16:50;100736.0;;;10.54;67.69
77749;BME280;66938;52.084;5.228;2023-04-24T10:18:29;100741.0;;;10.28;69.91
77749;BME280;66938;52.084;5.228;2023-04-24T10:21:44;100738.0;;;10.16;70.38
77749;BME280;66938;52.084;5.228;2023-04-24T10:23:21;100740.0;;;10.24;70.17
77749;BME280;66938;52.084;5.228;2023-04-24T10:24:58;100741.0;;;10.1;68.94
77749;BME280;66938;52.084;5.228;2023-04-24T10:26:35;100739.0;;;10.07;69.03
77749;BME280;66938;52.084;5.228;2023-04-24T10:29:49;100745.0;;;10.23;67.67
77749;BME280;66938;52.084;5.228;2023-04-24T10:31:31;100737.0;;;10.26;68.3
77749;BME280;66938;52.084;5.228;2023-04-24T10:33:08;100742.0;;;10.39;68.62
77749;BME280;66938;52.084;5.228;2023-04-24T10:36:21;100750.0;;;10.31;67.19
77749;BME280;66938;52.084;5.228;2023-04-24T10:38:01;100743.0;;;10.42;66.35
77749;BME280;66938;52.084;5.228;2023-04-24T10:39:41;100747.0;;;10.45;67.3
77749;BME280;66938;52.084;5.228;2023-04-24T10:41:17;100749.0;;;10.48;67.19
77749;BME280;66938;52.084;5.228;2023-04-24T10:44:36;100755.0;;;10.55;66.27
77749;BME280;66938;52.084;5.228;2023-04-24T10:46:19;100750.0;;;10.68;66.27
77749;BME280;66938;52.084;5.228;2023-04-24T10:47:58;100755.0;;;10.82;67.37
77749;BME280;66938;52.084;5.228;2023-04-24T10:49:35;100753.0;;;10.95;68.16
77749;BME280;66938;52.084;5.228;2023-04-24T10:52:49;100751.0;;;10.99;67.02
77749;BME280;66938;52.084;5.228;2023-04-24T10:54:26;100757.0;;;11.18;66.36
77749;BME280;66938;52.084;5.228;2023-04-24T10:56:05;100759.0;;;11.11;64.02
77749;BME280;66938;52.084;5.228;2023-04-24T10:59:38;100766.0;;;11.31;66.2
77749;BME280;66938;52.084;5.228;2023-04-24T11:01:31;100750.0;;;11.31;64.16
77749;BME280;66938;52.084;5.228;2023-04-24T11:03:23;100758.0;;;11.48;64.75
77749;BME280;66938;52.084;5.228;2023-04-24T11:05:03;100758.0;;;11.42;64.52
77749;BME280;66938;52.084;5.228;2023-04-24T11:06:40;100764.0;;;11.15;65.44
77749;BME280;66938;52.084;5.228;2023-04-24T11:10:00;100764.0;;;11.12;65.12
77749;BME280;66938;52.084;5.228;2023-04-24T11:11:37;100768.0;;;10.9;66.88